Time;durP1;ratioP1;P1;durP2;ratioP2;P2;SDS_P1;SDS_P2;PMS_P1;PMS_P2;Temp;Humidity;BMP_temperature;BMP_pressure;BME280_temperature;BME280_humidity;BME280_pressure;Samples;Min_cycle;Max_cycle;Signal;HPM_P1;HPM_P2
2021/06/13 00:00:09;;;;;;;1.23;1.00;;;;;;;16.07;60.17;100306.38;5108126;28;20194;-72
2021/06/13 00:02:39;;;;;;;0.93;0.93;;;;;;;16.07;59.63;100301.81;5108049;28;20211;-71
2021/06/13 00:05:10;;;;;;;2.57;1.00;;;;;;;16.11;59.84;100307.78;5109882;28;20189;-71
2021/06/13 00:07:38;;;;;;;1.00;0.90;;;;;;;16.01;59.34;100288.03;5108108;28;20681;-70
2021/06/13 00:10:08;;;;;;;1.07;1.00;;;;;;;16.17;58.51;100318.03;5106270;28;20434;-71
2021/06/13 00:12:36;;;;;;;0.90;0.90;;;;;;;16.17;58.45;100315.31;5109163;28;20225;-71
2021/06/13 00:15:05;;;;;;;0.80;0.80;;;;;;;16.15;58.38;100320.88;5107875;28;20674;-71
2021/06/13 00:17:33;;;;;;;1.00;1.00;;;;;;;16.12;58.91;100321.19;5109389;28;20196;-71
2021/06/13 00:20:06;;;;;;;1.17;0.90;;;;;;;16.05;59.06;100321.94;5107661;28;20368;-71
2021/06/13 00:22:35;;;;;;;0.90;0.90;;;;;;;16.03;59.33;100326.66;5109195;28;20667;-71
2021/06/13 00:25:04;;;;;;;1.20;1.10;;;;;;;16.02;59.36;100330.38;5107575;28;20409;-71
2021/06/13 00:27:32;;;;;;;1.10;1.00;;;;;;;15.99;58.87;100328.81;5102689;28;20191;-72
2021/06/13 00:29:59;;;;;;;1.20;0.90;;;;;;;15.93;58.98;100336.69;5120900;27;20231;-71
2021/06/13 00:32:28;;;;;;;1.10;1.10;;;;;;;15.91;58.93;100338.66;5106152;28;20211;-71
2021/06/13 00:34:55;;;;;;;1.20;1.10;;;;;;;15.89;59.28;100336.09;5106498;28;20196;-70
2021/06/13 00:37:23;;;;;;;0.90;0.90;;;;;;;15.86;59.04;100341.81;5107954;28;20219;-71
2021/06/13 00:39:52;;;;;;;1.73;0.90;;;;;;;15.83;59.48;100352.94;5104786;28;20260;-71
2021/06/13 00:42:20;;;;;;;1.00;1.00;;;;;;;15.80;59.89;100356.81;5108322;28;20198;-71
2021/06/13 00:44:48;;;;;;;1.00;1.00;;;;;;;15.80;59.71;100351.38;5101313;28;20204;-71
2021/06/13 00:47:16;;;;;;;1.07;1.07;;;;;;;15.75;60.06;100361.81;5124212;27;20215;-71
2021/06/13 00:49:43;;;;;;;2.07;1.10;;;;;;;15.75;59.69;100360.97;5100816;28;20201;-72
2021/06/13 00:52:12;;;;;;;1.13;1.10;;;;;;;15.74;60.39;100351.97;5115122;28;20203;-72
2021/06/13 00:54:39;;;;;;;1.00;0.90;;;;;;;15.69;60.11;100348.88;5118403;28;20678;-71
2021/06/13 00:57:09;;;;;;;2.07;1.40;;;;;;;15.74;59.66;100365.53;5108583;28;20218;-70
2021/06/13 00:59:37;;;;;;;1.00;1.00;;;;;;;15.71;59.99;100365.81;5124003;27;20291;-71
2021/06/13 01:02:05;;;;;;;1.00;1.00;;;;;;;15.70;60.22;100369.53;5104740;28;20237;-72
2021/06/13 01:04:33;;;;;;;0.80;0.80;;;;;;;15.71;60.25;100376.66;5107239;28;20291;-71
2021/06/13 01:07:06;;;;;;;1.73;0.93;;;;;;;15.62;60.75;100380.25;5120373;27;20221;-70
2021/06/13 01:09:42;;;;;;;1.00;0.80;;;;;;;15.67;60.49;100379.81;5117637;27;20256;-72
2021/06/13 01:12:20;;;;;;;1.00;1.00;;;;;;;15.59;60.30;100377.78;5113270;28;20231;-72
2021/06/13 01:14:54;;;;;;;1.20;1.10;;;;;;;15.61;60.24;100388.47;5105614;28;20322;-72
2021/06/13 01:17:29;;;;;;;1.20;1.10;;;;;;;15.58;59.55;100378.78;5109834;28;20533;-72
2021/06/13 01:20:09;;;;;;;1.87;1.17;;;;;;;15.58;60.01;100384.22;5105904;28;20245;-71
2021/06/13 01:22:52;;;;;;;2.10;0.90;;;;;;;15.56;59.80;100391.59;5106812;28;20331;-71
2021/06/13 01:25:34;;;;;;;1.00;1.00;;;;;;;15.49;60.74;100393.16;5104680;28;20199;-72
2021/06/13 01:28:37;;;;;;;1.07;1.07;;;;;;;15.46;60.04;100391.63;5105429;28;20205;-71
2021/06/13 01:31:06;;;;;;;1.10;1.10;;;;;;;15.42;60.35;100395.59;5106477;28;20468;-71
2021/06/13 01:33:36;;;;;;;0.90;0.90;;;;;;;15.37;60.51;100402.44;5105863;28;20202;-71
2021/06/13 01:36:07;;;;;;;1.17;1.07;;;;;;;15.21;60.59;100374.09;5097046;28;20295;-71
2021/06/13 01:38:35;;;;;;;0.97;0.97;;;;;;;14.97;61.29;100343.91;5118776;27;20439;-71
2021/06/13 01:41:08;;;;;;;1.30;1.20;;;;;;;15.29;61.31;100402.28;5105784;28;20294;-71
2021/06/13 01:43:38;;;;;;;1.10;1.10;;;;;;;15.28;61.25;100401.44;5117222;28;20534;-71
2021/06/13 01:46:08;;;;;;;1.17;1.10;;;;;;;15.30;61.49;100402.16;5106611;28;20547;-71
2021/06/13 01:48:38;;;;;;;1.20;1.10;;;;;;;15.23;61.44;100399.16;5108936;28;20204;-72
2021/06/13 01:51:08;;;;;;;1.13;1.10;;;;;;;15.29;61.38;100408.56;5108790;27;20690;-71
2021/06/13 01:53:41;;;;;;;1.13;0.83;;;;;;;15.07;61.86;100376.41;5107291;28;20212;-71
2021/06/13 01:56:15;;;;;;;1.40;1.23;;;;;;;15.26;61.86;100416.09;5110437;28;20274;-71
2021/06/13 01:58:46;;;;;;;1.27;1.17;;;;;;;15.25;61.38;100414.41;5111556;28;20287;-73
2021/06/13 02:01:27;;;;;;;1.60;1.30;;;;;;;15.21;61.48;100417.38;5102189;28;20196;-72
2021/06/13 02:03:58;;;;;;;1.73;1.23;;;;;;;15.19;61.37;100416.69;5108864;28;20614;-71
2021/06/13 02:06:57;;;;;;;1.50;1.40;;;;;;;15.03;61.80;100394.75;5101886;28;20196;-71
2021/06/13 02:09:30;;;;;;;1.10;1.10;;;;;;;15.18;61.47;100417.69;5105387;28;20624;-71
2021/06/13 02:12:04;;;;;;;1.00;1.00;;;;;;;15.15;61.72;100427.94;5115154;27;20220;-72
2021/06/13 02:14:39;;;;;;;1.27;1.17;;;;;;;15.13;62.08;100435.31;5108216;28;20231;-71
2021/06/13 02:17:10;;;;;;;1.37;1.30;;;;;;;15.11;61.58;100443.59;5109946;28;20228;-71
2021/06/13 02:19:46;;;;;;;2.17;1.20;;;;;;;15.05;61.86;100448.72;5101626;27;20228;-71
2021/06/13 02:22:21;;;;;;;1.23;1.13;;;;;;;15.03;61.79;100446.16;5109914;28;20641;-71
2021/06/13 02:24:52;;;;;;;1.17;1.17;;;;;;;14.94;62.55;100436.16;5112004;27;20195;-72
2021/06/13 02:27:25;;;;;;;1.20;1.10;;;;;;;15.18;62.50;100460.09;5109935;28;20282;-72
2021/06/13 02:29:57;;;;;;;1.10;1.10;;;;;;;15.25;62.42;100453.13;5104837;28;20345;-72
2021/06/13 02:32:25;;;;;;;1.37;1.27;;;;;;;15.38;63.19;100463.69;5109728;28;20668;-71
2021/06/13 02:34:53;;;;;;;1.47;1.37;;;;;;;15.70;63.44;100464.28;5104541;28;20351;-71
2021/06/13 02:37:31;;;;;;;1.33;1.03;;;;;;;16.34;63.50;100465.44;5103201;28;20203;-71
2021/06/13 02:39:59;;;;;;;1.33;1.23;;;;;;;17.00;62.42;100463.44;5120901;27;20196;-71
2021/06/13 02:42:35;;;;;;;1.37;1.10;;;;;;;17.67;60.80;100462.09;5109084;28;20210;-71
2021/06/13 02:45:09;;;;;;;1.53;1.10;;;;;;;18.14;58.62;100447.34;5104103;28;20244;-72
2021/06/13 02:47:37;;;;;;;1.40;1.30;;;;;;;18.84;57.89;100459.81;5107736;28;20196;-72
2021/06/13 02:50:07;;;;;;;1.63;1.20;;;;;;;19.43;57.04;100466.09;5101700;28;20188;-72
2021/06/13 02:52:41;;;;;;;0.90;0.90;;;;;;;20.04;54.75;100485.72;5107567;28;20707;-71
2021/06/13 02:55:15;;;;;;;3.20;1.80;;;;;;;20.66;53.03;100489.56;5121172;27;20311;-71
2021/06/13 02:57:49;;;;;;;1.77;1.10;;;;;;;20.99;51.91;100478.50;5107002;28;20404;-71
2021/06/13 03:00:20;;;;;;;1.10;1.10;;;;;;;21.54;50.92;100513.06;5104691;28;20245;-72
2021/06/13 03:02:52;;;;;;;1.13;1.10;;;;;;;21.63;49.49;100514.72;5108634;28;20352;-70
2021/06/13 03:05:23;;;;;;;1.03;1.03;;;;;;;21.42;49.44;100509.88;5104743;28;20674;-71
2021/06/13 03:07:51;;;;;;;1.17;1.17;;;;;;;21.19;49.80;100501.63;5107273;28;20205;-71
2021/06/13 03:10:21;;;;;;;1.20;1.10;;;;;;;21.16;49.87;100531.19;5104075;28;20187;-70
2021/06/13 03:12:54;;;;;;;1.27;1.13;;;;;;;21.01;50.34;100542.00;5106929;28;20223;-71
2021/06/13 03:15:27;;;;;;;1.13;1.03;;;;;;;20.92;50.27;100537.59;5104042;28;20255;-71
2021/06/13 03:17:56;;;;;;;1.07;1.07;;;;;;;20.66;51.04;100543.28;5108632;28;20405;-71
2021/06/13 03:20:25;;;;;;;1.63;1.20;;;;;;;20.62;50.91;100559.16;5103992;27;20195;-71
2021/06/13 03:22:56;;;;;;;1.30;1.20;;;;;;;20.23;51.17;100544.53;5110270;27;20214;-71
2021/06/13 03:25:27;;;;;;;3.27;1.27;;;;;;;19.91;52.42;100559.88;5108768;27;20205;-71
2021/06/13 03:27:56;;;;;;;4.63;1.20;;;;;;;19.68;53.29;100564.25;5108824;27;20280;-71
2021/06/13 03:30:26;;;;;;;1.17;1.17;;;;;;;19.49;53.62;100577.09;5099698;28;20199;-70
2021/06/13 03:33:01;;;;;;;2.73;1.33;;;;;;;19.37;53.96;100572.13;5104623;28;20269;-71
2021/06/13 03:35:32;;;;;;;1.60;1.50;;;;;;;19.00;54.94;100575.22;5105545;28;20214;-72
2021/06/13 03:38:02;;;;;;;1.30;1.20;;;;;;;18.77;55.89;100581.22;5102806;28;20207;-71
2021/06/13 03:40:32;;;;;;;1.37;1.27;;;;;;;18.53;56.44;100578.28;5107629;28;20269;-72
2021/06/13 03:43:02;;;;;;;1.57;1.33;;;;;;;18.26;56.82;100566.53;5121772;27;20196;-71
2021/06/13 03:45:32;;;;;;;1.17;1.07;;;;;;;18.11;57.06;100586.28;5107433;28;20226;-72
2021/06/13 03:48:01;;;;;;;1.60;1.10;;;;;;;17.92;57.49;100595.44;5104237;28;20974;-72
2021/06/13 03:50:30;;;;;;;3.83;1.40;;;;;;;17.80;57.51;100596.69;5106764;28;20199;-71
2021/06/13 03:52:59;;;;;;;1.37;1.20;;;;;;;17.69;58.49;100589.59;5105603;28;20220;-70
2021/06/13 03:55:28;;;;;;;1.10;1.10;;;;;;;17.63;57.46;100596.47;5096485;28;20200;-71
2021/06/13 03:57:57;;;;;;;2.20;1.20;;;;;;;17.27;58.03;100568.41;5105447;28;20675;-71
2021/06/13 04:00:30;;;;;;;1.20;1.20;;;;;;;17.31;58.82;100596.94;5105064;27;20220;-71
2021/06/13 04:03:01;;;;;;;1.30;1.20;;;;;;;17.00;58.37;100581.97;5100948;27;20296;-72
2021/06/13 04:05:34;;;;;;;1.70;1.40;;;;;;;17.00;58.56;100601.81;5105457;28;20567;-72
2021/06/13 04:08:02;;;;;;;1.07;1.03;;;;;;;16.94;58.29;100607.84;5105372;28;20244;-72
2021/06/13 04:10:31;;;;;;;1.13;1.10;;;;;;;16.85;58.99;100606.03;5104084;28;20200;-72
2021/06/13 04:13:00;;;;;;;2.10;1.47;;;;;;;16.80;58.91;100613.72;5106142;28;20216;-72
2021/06/13 04:15:29;;;;;;;1.23;1.13;;;;;;;16.85;59.06;100627.72;5106647;28;20228;-72
2021/06/13 04:17:59;;;;;;;1.17;1.00;;;;;;;16.88;58.54;100632.00;5104841;28;20208;-71
2021/06/13 04:20:27;;;;;;;1.27;1.17;;;;;;;16.91;58.48;100635.25;5106183;28;20207;-72
2021/06/13 04:22:56;;;;;;;0.97;0.97;;;;;;;16.89;59.34;100645.41;5105148;28;20200;-72
2021/06/13 04:25:25;;;;;;;1.40;1.07;;;;;;;16.84;58.66;100628.72;5097425;28;20258;-72
2021/06/13 04:27:54;;;;;;;2.47;1.17;;;;;;;16.64;58.48;100633.28;5101898;28;20200;-70
2021/06/13 04:30:24;;;;;;;1.20;1.20;;;;;;;16.71;58.07;100653.44;5121684;27;20207;-71
2021/06/13 04:32:52;;;;;;;1.17;1.03;;;;;;;16.72;59.21;100651.56;5104657;28;20223;-71
2021/06/13 04:35:22;;;;;;;1.90;1.10;;;;;;;16.81;58.66;100657.97;5105956;28;20203;-71
2021/06/13 04:37:50;;;;;;;1.50;1.00;;;;;;;16.79;57.59;100659.97;5118104;27;20214;-71
2021/06/13 04:40:18;;;;;;;1.30;1.20;;;;;;;16.71;58.14;100668.84;5102783;28;20199;-71
2021/06/13 04:42:46;;;;;;;1.10;1.00;;;;;;;16.64;57.13;100678.53;5106287;28;20196;-72
2021/06/13 04:45:15;;;;;;;1.00;1.00;;;;;;;16.74;57.15;100682.97;5098589;28;20188;-70
2021/06/13 04:47:43;;;;;;;2.60;1.10;;;;;;;16.75;56.27;100697.38;5104199;28;20191;-71
2021/06/13 04:50:12;;;;;;;0.70;0.70;;;;;;;16.77;56.79;100706.22;5106145;28;20665;-71
2021/06/13 04:52:43;;;;;;;1.10;1.00;;;;;;;16.77;56.55;100708.94;5104463;28;20982;-71
2021/06/13 04:55:26;;;;;;;0.80;0.80;;;;;;;16.63;57.04;100703.94;5105360;28;20200;-71
2021/06/13 04:58:19;;;;;;;1.67;0.90;;;;;;;16.76;56.17;100712.66;5105499;28;20203;-72
2021/06/13 05:00:47;;;;;;;0.80;0.80;;;;;;;16.89;57.06;100709.66;5097781;28;20219;-71
2021/06/13 05:03:15;;;;;;;1.60;1.50;;;;;;;17.10;57.00;100718.44;5098357;28;20674;-71
2021/06/13 05:05:43;;;;;;;0.90;0.90;;;;;;;17.35;56.45;100728.66;5104548;28;20518;-71
2021/06/13 05:08:13;;;;;;;0.70;0.70;;;;;;;17.48;54.94;100720.22;5101535;28;20188;-71
2021/06/13 05:10:42;;;;;;;0.80;0.80;;;;;;;17.52;54.00;100723.47;5101150;28;20196;-71
2021/06/13 05:13:17;;;;;;;1.63;1.00;;;;;;;17.61;53.92;100731.56;5103966;28;20263;-71
2021/06/13 05:15:46;;;;;;;0.80;0.80;;;;;;;17.76;53.42;100737.41;5104233;28;20231;-71
2021/06/13 05:18:14;;;;;;;0.83;0.83;;;;;;;17.81;53.42;100717.94;5104755;28;20671;-72
2021/06/13 05:20:42;;;;;;;0.70;0.70;;;;;;;18.16;53.04;100747.06;5103804;28;20199;-71
2021/06/13 05:23:10;;;;;;;0.90;0.90;;;;;;;18.02;51.11;100753.84;5108444;28;20200;-71
2021/06/13 05:25:40;;;;;;;0.70;0.70;;;;;;;18.03;50.78;100766.44;5108266;28;20188;-72
2021/06/13 05:28:08;;;;;;;0.70;0.70;;;;;;;18.01;50.69;100776.59;5110571;28;20192;-70
2021/06/13 05:30:37;;;;;;;2.43;0.80;;;;;;;17.85;51.36;100703.03;5107930;28;20256;-71
2021/06/13 05:33:06;;;;;;;0.70;0.70;;;;;;;18.28;52.77;100740.38;5101543;28;20631;-71
2021/06/13 05:35:36;;;;;;;0.80;0.80;;;;;;;18.78;51.14;100773.41;5108180;28;20725;-71
2021/06/13 05:38:04;;;;;;;0.93;0.80;;;;;;;18.93;49.55;100777.25;5104798;28;20631;-71
2021/06/13 05:40:33;;;;;;;0.80;0.80;;;;;;;18.96;49.71;100794.28;5105116;27;20219;-71
2021/06/13 05:43:03;;;;;;;0.80;0.80;;;;;;;19.02;49.75;100789.09;5109317;28;20675;-71
2021/06/13 05:45:33;;;;;;;0.60;0.60;;;;;;;19.26;48.37;100810.19;5109879;27;20199;-71
2021/06/13 05:48:01;;;;;;;0.70;0.70;;;;;;;19.19;47.76;100806.41;5107638;27;20196;-71
2021/06/13 05:50:31;;;;;;;0.70;0.70;;;;;;;18.89;47.37;100805.81;5105058;28;20192;-71
2021/06/13 05:53:00;;;;;;;0.60;0.60;;;;;;;18.50;47.23;100752.69;5103657;28;20211;-70
2021/06/13 05:55:31;;;;;;;0.60;0.60;;;;;;;18.71;48.16;100810.41;5109421;27;20196;-71
2021/06/13 05:57:59;;;;;;;0.70;0.70;;;;;;;18.36;49.03;100821.19;5099686;27;20605;-71
2021/06/13 06:00:30;;;;;;;6.07;1.27;;;;;;;18.21;48.62;100818.13;5104557;27;20200;-71
2021/06/13 06:02:59;;;;;;;1.90;1.00;;;;;;;18.16;49.88;100821.31;5098373;28;20207;-71
2021/06/13 06:05:28;;;;;;;0.60;0.60;;;;;;;18.20;50.07;100825.44;5105031;28;20211;-71
2021/06/13 06:07:56;;;;;;;0.70;0.70;;;;;;;18.05;50.18;100824.22;5103742;27;20607;-70
2021/06/13 06:10:26;;;;;;;0.90;0.90;;;;;;;18.23;49.56;100814.25;5103415;27;20606;-72
2021/06/13 06:12:55;;;;;;;0.70;0.70;;;;;;;18.31;48.93;100841.53;5100164;27;20267;-71
2021/06/13 06:15:26;;;;;;;1.03;0.77;;;;;;;18.25;48.98;100842.16;5101562;27;20644;-71
2021/06/13 06:17:56;;;;;;;2.40;0.70;;;;;;;18.35;49.03;100846.66;5099504;27;20211;-71
2021/06/13 06:20:27;;;;;;;0.83;0.83;;;;;;;18.17;48.53;100849.34;5102027;27;20247;-70
2021/06/13 06:22:57;;;;;;;0.97;0.97;;;;;;;18.16;48.41;100853.06;5101452;28;20619;-71
2021/06/13 06:25:27;;;;;;;0.70;0.70;;;;;;;18.05;49.16;100832.34;5104782;28;20593;-71
2021/06/13 06:27:56;;;;;;;1.10;0.70;;;;;;;18.04;49.67;100827.06;5105169;28;21289;-71
2021/06/13 06:30:27;;;;;;;0.60;0.60;;;;;;;18.20;49.31;100860.78;5102245;27;20206;-71
2021/06/13 06:32:57;;;;;;;0.80;0.80;;;;;;;18.19;49.58;100864.50;5101649;28;20732;-71
2021/06/13 06:35:27;;;;;;;0.80;0.80;;;;;;;18.07;49.50;100843.97;5102312;27;20199;-70
2021/06/13 06:37:56;;;;;;;0.87;0.80;;;;;;;18.02;48.73;100869.84;5098671;27;20208;-71
2021/06/13 06:40:27;;;;;;;0.77;0.77;;;;;;;18.13;48.86;100872.41;5098400;27;20529;-70
2021/06/13 06:42:55;;;;;;;0.70;0.70;;;;;;;17.92;48.43;100878.06;5104460;27;20219;-71
2021/06/13 06:45:24;;;;;;;0.70;0.70;;;;;;;17.81;49.24;100886.41;5102446;27;20199;-71
2021/06/13 06:47:52;;;;;;;0.80;0.80;;;;;;;18.07;49.79;100890.19;5102214;27;20210;-71
2021/06/13 06:50:22;;;;;;;0.70;0.70;;;;;;;18.18;50.06;100892.69;5101574;27;20192;-70
2021/06/13 06:52:53;;;;;;;0.80;0.73;;;;;;;18.29;49.19;100900.66;5099830;27;20642;-71
2021/06/13 06:55:24;;;;;;;0.90;0.90;;;;;;;18.44;49.33;100892.00;5115567;27;20292;-71
2021/06/13 06:57:52;;;;;;;1.33;0.73;;;;;;;18.85;49.34;100913.28;5103163;27;20467;-71
2021/06/13 07:00:20;;;;;;;0.60;0.60;;;;;;;18.76;47.92;100900.59;5104592;27;20245;-71
2021/06/13 07:02:49;;;;;;;0.77;0.77;;;;;;;19.10;49.33;100916.25;5104241;27;20647;-71
2021/06/13 07:05:17;;;;;;;0.80;0.80;;;;;;;19.39;49.32;100892.34;5099189;27;20200;-71
2021/06/13 07:07:47;;;;;;;1.00;1.00;;;;;;;19.77;48.31;100902.06;5100437;27;20261;-71
2021/06/13 07:10:15;;;;;;;1.03;0.90;;;;;;;20.46;46.52;100916.63;5100567;27;20200;-71
2021/06/13 07:12:43;;;;;;;2.53;0.90;;;;;;;20.33;45.35;100918.94;5102638;27;20206;-71
2021/06/13 07:15:13;;;;;;;1.20;1.10;;;;;;;20.31;44.10;100926.41;5102116;27;20411;-71
2021/06/13 07:17:42;;;;;;;0.70;0.70;;;;;;;20.12;44.64;100933.81;5102655;27;20655;-71
2021/06/13 07:20:12;;;;;;;0.83;0.80;;;;;;;20.38;45.44;100938.38;5104677;28;20869;-71
2021/06/13 07:22:41;;;;;;;0.70;0.70;;;;;;;20.26;44.76;100934.25;5120699;27;20216;-71
2021/06/13 07:25:11;;;;;;;0.70;0.70;;;;;;;20.73;44.56;100919.13;5106476;28;20184;-71
2021/06/13 07:27:41;;;;;;;0.87;0.87;;;;;;;21.30;45.04;100943.88;5104520;28;20215;-71
2021/06/13 07:30:12;;;;;;;1.80;0.80;;;;;;;21.66;43.94;100947.13;5106123;28;20200;-71
2021/06/13 07:32:40;;;;;;;0.60;0.60;;;;;;;21.82;42.03;100946.28;5102614;28;20210;-71
2021/06/13 07:35:11;;;;;;;0.77;0.77;;;;;;;22.18;41.72;100956.88;5105434;28;20223;-72
2021/06/13 07:37:40;;;;;;;0.97;0.87;;;;;;;22.31;41.99;100959.91;5099169;27;20307;-72
2021/06/13 07:40:11;;;;;;;0.70;0.70;;;;;;;22.25;41.25;100961.47;5092255;27;20556;-72
2021/06/13 07:42:40;;;;;;;1.37;0.70;;;;;;;22.22;40.55;100971.91;5100433;27;20203;-71
2021/06/13 07:45:10;;;;;;;0.90;0.60;;;;;;;22.53;40.73;100967.38;5099210;27;20192;-71
2021/06/13 07:47:39;;;;;;;0.67;0.67;;;;;;;22.79;38.84;100971.75;5103217;28;20192;-71
2021/06/13 07:50:10;;;;;;;0.50;0.50;;;;;;;23.16;38.75;100971.91;5101292;27;20196;-71
2021/06/13 07:52:39;;;;;;;1.87;0.60;;;;;;;22.65;35.75;100977.94;5100541;27;20192;-71
2021/06/13 07:55:11;;;;;;;2.93;0.53;;;;;;;22.95;37.15;100985.38;5103620;27;20228;-71
2021/06/13 07:57:39;;;;;;;0.70;0.70;;;;;;;23.15;37.31;100989.41;5105426;28;20196;-72
2021/06/13 08:00:10;;;;;;;0.47;0.47;;;;;;;23.10;36.25;100947.97;5101383;28;20275;-70
2021/06/13 08:02:45;;;;;;;0.50;0.50;;;;;;;22.91;35.64;100982.16;5100180;28;20262;-72
2021/06/13 08:05:16;;;;;;;0.53;0.53;;;;;;;22.50;35.88;100980.56;5103701;28;20327;-71
2021/06/13 08:07:44;;;;;;;0.60;0.60;;;;;;;22.25;36.78;100997.03;5103431;28;20206;-71
2021/06/13 08:10:14;;;;;;;0.60;0.60;;;;;;;22.30;36.81;100985.56;5096145;27;20264;-72
2021/06/13 08:12:42;;;;;;;0.47;0.47;;;;;;;22.41;36.88;100974.28;5099529;27;20207;-71
2021/06/13 08:15:12;;;;;;;0.60;0.60;;;;;;;22.41;37.97;101001.66;5098824;27;20245;-71
2021/06/13 08:17:41;;;;;;;1.80;0.70;;;;;;;22.92;37.17;100992.06;5099778;27;20196;-71
2021/06/13 08:20:10;;;;;;;0.50;0.50;;;;;;;23.54;37.90;100999.44;5098735;27;20204;-72
2021/06/13 08:22:38;;;;;;;1.03;0.70;;;;;;;24.05;35.72;100997.84;5099638;28;20203;-71
2021/06/13 08:25:07;;;;;;;0.53;0.53;;;;;;;24.49;35.86;101002.63;5099342;27;20607;-71
2021/06/13 08:27:37;;;;;;;0.60;0.60;;;;;;;24.82;33.61;100989.34;5099579;27;20678;-71
2021/06/13 08:30:07;;;;;;;0.60;0.60;;;;;;;24.94;32.83;100982.31;5098078;27;20686;-72
2021/06/13 08:32:36;;;;;;;0.97;0.60;;;;;;;25.03;34.49;100989.41;5097913;28;20719;-71
2021/06/13 08:35:07;;;;;;;0.63;0.63;;;;;;;24.93;33.77;100991.59;5098970;27;20223;-71
2021/06/13 08:37:36;;;;;;;0.50;0.50;;;;;;;24.38;34.34;100992.91;5097925;27;20203;-71
2021/06/13 08:40:07;;;;;;;0.57;0.57;;;;;;;24.94;34.80;100997.94;5099714;28;20203;-72
2021/06/13 08:42:38;;;;;;;0.60;0.60;;;;;;;25.29;34.32;101002.66;5094460;28;20203;-71
2021/06/13 08:45:10;;;;;;;1.20;0.50;;;;;;;25.67;34.00;101006.06;5098319;28;20758;-71
2021/06/13 08:47:39;;;;;;;0.60;0.60;;;;;;;25.14;33.23;100948.75;5097021;28;20192;-71
2021/06/13 08:50:10;;;;;;;0.50;0.50;;;;;;;25.58;33.83;101009.94;5099997;28;20200;-72
2021/06/13 08:52:38;;;;;;;0.60;0.60;;;;;;;26.06;33.20;101015.75;5101513;27;20500;-72
2021/06/13 08:55:09;;;;;;;1.85;0.70;;;;;;;26.21;32.68;101012.91;5104476;28;20678;-72
2021/06/13 08:57:39;;;;;;;0.70;0.70;;;;;;;26.55;32.72;101021.22;5105308;27;20199;-72
2021/06/13 09:00:09;;;;;;;2.05;0.60;;;;;;;26.65;32.73;101026.41;5107755;28;20605;-72
2021/06/13 09:02:37;;;;;;;0.60;0.60;;;;;;;26.58;32.31;101004.28;5109492;28;20200;-71
2021/06/13 09:05:07;;;;;;;0.60;0.60;;;;;;;27.04;33.48;101019.44;5106315;28;20198;-71
2021/06/13 09:07:35;;;;;;;0.52;0.52;;;;;;;27.09;32.80;101031.53;5108746;28;20252;-71
2021/06/13 09:10:09;;;;;;;0.70;0.70;;;;;;;27.12;32.52;101036.66;5105563;28;20204;-72
2021/06/13 09:12:39;;;;;;;0.55;0.55;;;;;;;27.30;32.52;101035.25;5105744;28;20196;-72
2021/06/13 09:15:08;;;;;;;0.60;0.60;;;;;;;27.44;32.13;101032.31;5106972;28;20281;-72
2021/06/13 09:17:42;;;;;;;0.70;0.70;;;;;;;27.69;32.50;101038.16;5105144;27;20253;-72
2021/06/13 09:20:23;;;;;;;0.82;0.82;;;;;;;27.16;31.52;100998.47;5108893;28;20208;-72
2021/06/13 09:23:09;;;;;;;0.80;0.80;;;;;;;27.65;30.59;101042.41;5103937;27;21752;-72
2021/06/13 09:25:40;;;;;;;0.80;0.80;;;;;;;27.78;31.94;101038.81;5102671;28;20659;-71
2021/06/13 09:28:12;;;;;;;0.60;0.60;;;;;;;27.59;31.71;101034.06;5100289;27;20207;-71
2021/06/13 09:30:43;;;;;;;1.75;1.00;;;;;;;27.24;32.02;101047.94;5103132;27;20199;-71
2021/06/13 09:33:16;;;;;;;0.90;0.90;;;;;;;27.18;30.81;101048.75;5104768;27;20964;-71
2021/06/13 09:35:46;;;;;;;0.70;0.70;;;;;;;26.50;32.83;101023.75;5106201;27;20618;-71
2021/06/13 09:38:20;;;;;;;0.60;0.60;;;;;;;26.45;33.42;100997.84;5105820;27;20426;-71
2021/06/13 09:40:52;;;;;;;0.70;0.70;;;;;;;27.19;34.08;101048.56;5104948;27;20204;-72
2021/06/13 09:43:25;;;;;;;3.45;0.90;;;;;;;27.21;31.35;101053.88;5109605;28;20204;-71
2021/06/13 09:45:57;;;;;;;0.80;0.80;;;;;;;27.32;32.43;101047.78;5108100;28;20696;-71
2021/06/13 09:48:26;;;;;;;0.60;0.60;;;;;;;27.38;32.08;101043.34;5103611;27;20196;-71
2021/06/13 09:50:56;;;;;;;0.70;0.70;;;;;;;27.26;32.08;101059.66;5106392;28;20204;-70
2021/06/13 09:53:30;;;;;;;0.80;0.80;;;;;;;27.26;32.03;101056.88;5116895;27;20611;-71
2021/06/13 09:56:10;;;;;;;1.02;0.90;;;;;;;27.46;32.75;101055.03;5107408;28;20591;-71
2021/06/13 09:58:52;;;;;;;0.65;0.65;;;;;;;27.44;30.14;101050.78;5101239;27;20268;-71
2021/06/13 10:01:22;;;;;;;0.85;0.85;;;;;;;27.79;32.65;101055.16;5104165;28;20210;-71
2021/06/13 10:03:52;;;;;;;1.00;0.90;;;;;;;27.68;31.81;101063.22;5107589;28;20238;-72
2021/06/13 10:06:20;;;;;;;0.55;0.55;;;;;;;27.73;32.04;101057.91;5105214;27;20729;-70
2021/06/13 10:08:50;;;;;;;0.75;0.70;;;;;;;27.19;31.08;101067.00;5107384;28;20210;-71
2021/06/13 10:11:20;;;;;;;0.98;0.63;;;;;;;26.88;31.78;101035.22;5105593;27;20204;-71
2021/06/13 10:13:52;;;;;;;0.70;0.70;;;;;;;26.85;31.37;101059.59;5100224;27;20199;-70
2021/06/13 10:16:33;;;;;;;1.73;1.00;;;;;;;26.77;30.41;101068.88;5105449;27;20591;-71
2021/06/13 10:19:05;;;;;;;1.02;0.80;;;;;;;27.23;32.50;101079.34;5103135;27;20742;-70
2021/06/13 10:21:36;;;;;;;0.80;0.80;;;;;;;27.30;31.60;101084.91;5103472;27;20548;-73
2021/06/13 10:24:07;;;;;;;0.90;0.90;;;;;;;27.03;30.99;101067.38;5099746;27;20209;-73
2021/06/13 10:26:38;;;;;;;1.42;0.73;;;;;;;26.51;30.75;101088.81;5099560;27;20207;-73
2021/06/13 10:29:09;;;;;;;0.70;0.70;;;;;;;26.64;32.03;101079.81;5095895;27;20237;-73
2021/06/13 10:31:38;;;;;;;0.73;0.73;;;;;;;27.21;31.71;101086.97;5101870;27;20660;-73
2021/06/13 10:34:07;;;;;;;0.85;0.85;;;;;;;27.14;31.44;101088.84;5097407;27;20832;-73
2021/06/13 10:36:37;;;;;;;2.03;0.80;;;;;;;27.03;30.94;101087.53;5098660;27;20211;-73
2021/06/13 10:39:08;;;;;;;0.85;0.57;;;;;;;27.34;31.17;101084.28;5097431;27;20196;-73
2021/06/13 10:41:36;;;;;;;0.70;0.70;;;;;;;27.49;30.37;101062.03;5099781;27;20239;-73
2021/06/13 10:44:07;;;;;;;0.85;0.80;;;;;;;27.92;30.10;101084.72;5096077;27;20889;-74
2021/06/13 10:46:38;;;;;;;0.73;0.73;;;;;;;27.05;31.03;101081.81;5098782;27;20196;-74
2021/06/13 10:49:10;;;;;;;0.80;0.80;;;;;;;27.15;30.20;101082.28;5101935;27;20563;-74
2021/06/13 10:51:42;;;;;;;0.60;0.60;;;;;;;27.15;31.09;101076.75;5101641;27;20192;-72
2021/06/13 10:54:31;;;;;;;0.75;0.75;;;;;;;27.44;30.26;101062.66;5115825;27;20207;-72
2021/06/13 10:57:36;;;;;;;0.80;0.80;;;;;;;27.29;29.88;101072.19;5102099;28;20222;-72
2021/06/13 11:00:22;;;;;;;0.80;0.80;;;;;;;27.21;29.77;101079.53;5112498;27;20812;-72
2021/06/13 11:02:59;;;;;;;0.77;0.77;;;;;;;27.31;30.93;101076.44;5102741;27;20389;-72
2021/06/13 11:05:41;;;;;;;0.60;0.60;;;;;;;27.61;29.75;101084.41;5103325;28;20279;-73
2021/06/13 11:08:11;;;;;;;5.20;0.82;;;;;;;26.80;31.48;101089.66;5102498;28;20678;-72
2021/06/13 11:10:40;;;;;;;0.70;0.70;;;;;;;27.25;30.68;101085.53;5102009;28;20274;-72
2021/06/13 11:13:11;;;;;;;1.67;0.70;;;;;;;27.25;30.62;101077.25;5101850;27;20196;-71
2021/06/13 11:16:03;;;;;;;0.70;0.70;;;;;;;27.34;30.14;101089.81;5104072;27;20255;-70
2021/06/13 11:18:40;;;;;;;0.80;0.80;;;;;;;27.07;30.20;101074.19;5103313;28;20200;-71
2021/06/13 11:21:20;;;;;;;2.88;0.80;;;;;;;26.71;30.48;101079.88;5100625;28;20710;-72
2021/06/13 11:23:56;;;;;;;0.95;0.60;;;;;;;26.07;31.05;101085.44;5098709;27;20199;-72
2021/06/13 11:26:42;;;;;;;2.47;0.65;;;;;;;25.50;31.17;101080.75;5103846;27;20316;-72
2021/06/13 11:29:14;;;;;;;0.85;0.80;;;;;;;25.58;32.00;101086.97;5120065;27;20219;-73
2021/06/13 11:31:49;;;;;;;0.53;0.53;;;;;;;25.26;32.29;101088.28;5102818;28;20200;-71
2021/06/13 11:34:20;;;;;;;0.90;0.90;;;;;;;25.29;32.07;101078.78;5105855;27;20199;-72
2021/06/13 11:36:50;;;;;;;0.60;0.60;;;;;;;25.24;32.58;101103.25;5114996;27;20721;-73
2021/06/13 11:39:22;;;;;;;0.60;0.60;;;;;;;25.13;32.02;101103.75;5103547;28;20203;-72
2021/06/13 11:41:52;;;;;;;0.80;0.50;;;;;;;25.06;32.77;101104.50;5103326;28;20265;-72